sensor_id;sensor_type;location;lat;lon;timestamp;temperature;humidity
38902;DHT22;24661;53.566;9.910;2023-04-19T00:01:23;5.90;99.90
38902;DHT22;24661;53.566;9.910;2023-04-19T00:03:49;6.00;99.90
38902;DHT22;24661;53.566;9.910;2023-04-19T00:06:15;5.90;99.90
38902;DHT22;24661;53.566;9.910;2023-04-19T00:08:42;5.80;99.90
38902;DHT22;24661;53.566;9.910;2023-04-19T00:11:08;5.80;99.90
38902;DHT22;24661;53.566;9.910;2023-04-19T00:13:34;5.80;99.90
38902;DHT22;24661;53.566;9.910;2023-04-19T00:16:00;5.80;99.90
38902;DHT22;24661;53.566;9.910;2023-04-19T00:18:26;5.80;99.90
38902;DHT22;24661;53.566;9.910;2023-04-19T00:20:51;5.80;99.90
38902;DHT22;24661;53.566;9.910;2023-04-19T00:23:17;5.80;99.90
38902;DHT22;24661;53.566;9.910;2023-04-19T00:25:44;5.70;99.90
38902;DHT22;24661;53.566;9.910;2023-04-19T00:28:10;5.80;99.90
38902;DHT22;24661;53.566;9.910;2023-04-19T00:30:36;5.80;99.90
38902;DHT22;24661;53.566;9.910;2023-04-19T00:33:01;5.70;99.90
38902;DHT22;24661;53.566;9.910;2023-04-19T00:35:27;5.70;99.90
38902;DHT22;24661;53.566;9.910;2023-04-19T00:37:52;5.70;99.90
38902;DHT22;24661;53.566;9.910;2023-04-19T00:40:18;5.70;99.90
38902;DHT22;24661;53.566;9.910;2023-04-19T00:42:44;5.70;99.90
38902;DHT22;24661;53.566;9.910;2023-04-19T00:45:10;5.60;99.90
38902;DHT22;24661;53.566;9.910;2023-04-19T00:47:36;5.60;99.90
38902;DHT22;24661;53.566;9.910;2023-04-19T00:50:05;5.60;99.90
38902;DHT22;24661;53.566;9.910;2023-04-19T00:52:32;5.50;99.90
38902;DHT22;24661;53.566;9.910;2023-04-19T00:54:58;5.50;99.90
38902;DHT22;24661;53.566;9.910;2023-04-19T00:57:24;5.50;99.90
38902;DHT22;24661;53.566;9.910;2023-04-19T00:59:50;5.50;99.90
38902;DHT22;24661;53.566;9.910;2023-04-19T01:02:16;5.40;99.90
38902;DHT22;24661;53.566;9.910;2023-04-19T01:04:42;5.50;99.90
38902;DHT22;24661;53.566;9.910;2023-04-19T01:07:08;5.50;99.90
38902;DHT22;24661;53.566;9.910;2023-04-19T01:09:34;5.40;99.90
38902;DHT22;24661;53.566;9.910;2023-04-19T01:12:00;5.40;99.90
38902;DHT22;24661;53.566;9.910;2023-04-19T01:14:28;5.40;99.90
38902;DHT22;24661;53.566;9.910;2023-04-19T01:16:56;5.40;99.90
38902;DHT22;24661;53.566;9.910;2023-04-19T01:19:21;5.40;99.90
38902;DHT22;24661;53.566;9.910;2023-04-19T01:21:47;5.40;99.90
38902;DHT22;24661;53.566;9.910;2023-04-19T01:24:13;5.40;99.90
38902;DHT22;24661;53.566;9.910;2023-04-19T01:26:38;5.40;99.90
38902;DHT22;24661;53.566;9.910;2023-04-19T01:29:04;5.40;99.90
38902;DHT22;24661;53.566;9.910;2023-04-19T01:31:29;5.40;99.90
38902;DHT22;24661;53.566;9.910;2023-04-19T01:33:55;5.40;99.90
38902;DHT22;24661;53.566;9.910;2023-04-19T01:36:20;5.40;99.90
38902;DHT22;24661;53.566;9.910;2023-04-19T01:38:46;5.30;99.90
38902;DHT22;24661;53.566;9.910;2023-04-19T01:41:12;5.30;99.90
38902;DHT22;24661;53.566;9.910;2023-04-19T01:43:37;5.30;99.90
38902;DHT22;24661;53.566;9.910;2023-04-19T01:46:03;5.30;99.90
38902;DHT22;24661;53.566;9.910;2023-04-19T01:48:29;5.30;99.90
38902;DHT22;24661;53.566;9.910;2023-04-19T01:50:54;5.90;99.90
38902;DHT22;24661;53.566;9.910;2023-04-19T01:53:20;5.30;99.90
38902;DHT22;24661;53.566;9.910;2023-04-19T01:55:45;5.30;99.90
38902;DHT22;24661;53.566;9.910;2023-04-19T01:58:11;5.30;99.90
38902;DHT22;24661;53.566;9.910;2023-04-19T02:00:36;5.40;99.90
38902;DHT22;24661;53.566;9.910;2023-04-19T02:03:02;5.40;99.90
38902;DHT22;24661;53.566;9.910;2023-04-19T02:05:28;5.40;99.90
38902;DHT22;24661;53.566;9.910;2023-04-19T02:07:53;5.40;99.90
38902;DHT22;24661;53.566;9.910;2023-04-19T02:10:19;5.40;99.90
38902;DHT22;24661;53.566;9.910;2023-04-19T02:12:45;5.40;99.90
38902;DHT22;24661;53.566;9.910;2023-04-19T02:15:10;5.40;99.90
38902;DHT22;24661;53.566;9.910;2023-04-19T02:17:36;5.40;99.90
38902;DHT22;24661;53.566;9.910;2023-04-19T02:20:03;5.40;99.90
38902;DHT22;24661;53.566;9.910;2023-04-19T02:22:29;5.40;99.90
38902;DHT22;24661;53.566;9.910;2023-04-19T02:24:54;5.30;99.90
38902;DHT22;24661;53.566;9.910;2023-04-19T02:27:20;5.40;99.90
38902;DHT22;24661;53.566;9.910;2023-04-19T02:29:45;5.30;99.90
38902;DHT22;24661;53.566;9.910;2023-04-19T02:32:11;5.30;99.90
38902;DHT22;24661;53.566;9.910;2023-04-19T02:34:37;5.20;99.90
38902;DHT22;24661;53.566;9.910;2023-04-19T02:37:02;5.30;99.90
38902;DHT22;24661;53.566;9.910;2023-04-19T02:39:28;5.30;99.90
38902;DHT22;24661;53.566;9.910;2023-04-19T02:41:55;5.30;99.90
38902;DHT22;24661;53.566;9.910;2023-04-19T02:44:20;5.20;99.90
38902;DHT22;24661;53.566;9.910;2023-04-19T02:46:52;5.10;99.90
38902;DHT22;24661;53.566;9.910;2023-04-19T02:49:19;5.20;99.90
38902;DHT22;24661;53.566;9.910;2023-04-19T02:51:44;5.20;99.90
38902;DHT22;24661;53.566;9.910;2023-04-19T02:54:11;5.10;99.90
38902;DHT22;24661;53.566;9.910;2023-04-19T02:56:37;5.20;99.90
38902;DHT22;24661;53.566;9.910;2023-04-19T02:59:03;5.10;99.90
38902;DHT22;24661;53.566;9.910;2023-04-19T03:01:29;5.00;99.90
38902;DHT22;24661;53.566;9.910;2023-04-19T03:03:55;5.00;99.90
38902;DHT22;24661;53.566;9.910;2023-04-19T03:06:21;5.10;99.90
38902;DHT22;24661;53.566;9.910;2023-04-19T03:08:46;5.00;99.90
38902;DHT22;24661;53.566;9.910;2023-04-19T03:11:13;5.00;99.90
38902;DHT22;24661;53.566;9.910;2023-04-19T03:13:39;5.00;99.90
38902;DHT22;24661;53.566;9.910;2023-04-19T03:16:06;5.00;99.90
38902;DHT22;24661;53.566;9.910;2023-04-19T03:18:32;5.00;99.90
38902;DHT22;24661;53.566;9.910;2023-04-19T03:20:57;4.90;99.90
38902;DHT22;24661;53.566;9.910;2023-04-19T03:23:24;4.90;99.90
38902;DHT22;24661;53.566;9.910;2023-04-19T03:25:49;4.90;99.90
38902;DHT22;24661;53.566;9.910;2023-04-19T03:28:15;4.80;99.90
38902;DHT22;24661;53.566;9.910;2023-04-19T03:30:41;4.80;99.90
38902;DHT22;24661;53.566;9.910;2023-04-19T03:33:06;4.80;99.90
38902;DHT22;24661;53.566;9.910;2023-04-19T03:35:33;4.80;99.90
38902;DHT22;24661;53.566;9.910;2023-04-19T03:38:00;4.80;99.90
38902;DHT22;24661;53.566;9.910;2023-04-19T03:40:25;4.80;99.90
38902;DHT22;24661;53.566;9.910;2023-04-19T03:42:51;4.80;99.90
38902;DHT22;24661;53.566;9.910;2023-04-19T03:45:16;4.70;99.90
38902;DHT22;24661;53.566;9.910;2023-04-19T03:47:42;4.70;99.90
38902;DHT22;24661;53.566;9.910;2023-04-19T03:50:08;4.70;99.90
38902;DHT22;24661;53.566;9.910;2023-04-19T03:52:33;4.60;99.90
38902;DHT22;24661;53.566;9.910;2023-04-19T03:54:59;4.50;99.90
38902;DHT22;24661;53.566;9.910;2023-04-19T03:57:25;4.60;99.90
38902;DHT22;24661;53.566;9.910;2023-04-19T03:59:50;4.60;99.90
38902;DHT22;24661;53.566;9.910;2023-04-19T04:02:17;4.60;99.90
38902;DHT22;24661;53.566;9.910;2023-04-19T04:04:42;4.60;99.90
38902;DHT22;24661;53.566;9.910;2023-04-19T04:07:08;4.50;99.90
38902;DHT22;24661;53.566;9.910;2023-04-19T04:09:33;4.50;99.90
38902;DHT22;24661;53.566;9.910;2023-04-19T04:11:59;4.50;99.90
38902;DHT22;24661;53.566;9.910;2023-04-19T04:14:25;4.50;99.90
38902;DHT22;24661;53.566;9.910;2023-04-19T04:16:50;4.50;99.90
38902;DHT22;24661;53.566;9.910;2023-04-19T04:19:16;4.40;99.90
38902;DHT22;24661;53.566;9.910;2023-04-19T04:21:42;4.50;99.90
38902;DHT22;24661;53.566;9.910;2023-04-19T04:24:07;4.50;99.90
38902;DHT22;24661;53.566;9.910;2023-04-19T04:26:34;4.60;99.90
38902;DHT22;24661;53.566;9.910;2023-04-19T04:29:04;4.60;99.90
38902;DHT22;24661;53.566;9.910;2023-04-19T04:31:29;4.50;99.90
38902;DHT22;24661;53.566;9.910;2023-04-19T04:33:56;4.50;99.90
38902;DHT22;24661;53.566;9.910;2023-04-19T04:36:22;4.60;99.90
38902;DHT22;24661;53.566;9.910;2023-04-19T04:38:49;4.60;99.90
38902;DHT22;24661;53.566;9.910;2023-04-19T04:41:14;4.60;99.90
38902;DHT22;24661;53.566;9.910;2023-04-19T04:43:41;4.70;99.90
38902;DHT22;24661;53.566;9.910;2023-04-19T04:46:06;4.70;99.90
38902;DHT22;24661;53.566;9.910;2023-04-19T04:48:33;4.70;99.90
38902;DHT22;24661;53.566;9.910;2023-04-19T04:50:58;4.80;99.90
38902;DHT22;24661;53.566;9.910;2023-04-19T04:53:27;4.80;99.90
38902;DHT22;24661;53.566;9.910;2023-04-19T04:55:53;4.90;99.90
38902;DHT22;24661;53.566;9.910;2023-04-19T04:58:19;4.90;99.90
38902;DHT22;24661;53.566;9.910;2023-04-19T05:00:45;5.00;99.90
38902;DHT22;24661;53.566;9.910;2023-04-19T05:03:13;5.00;99.90
38902;DHT22;24661;53.566;9.910;2023-04-19T05:05:38;5.10;99.90
38902;DHT22;24661;53.566;9.910;2023-04-19T05:08:04;5.10;99.90
38902;DHT22;24661;53.566;9.910;2023-04-19T05:10:30;5.20;99.90
38902;DHT22;24661;53.566;9.910;2023-04-19T05:12:56;5.30;99.90
38902;DHT22;24661;53.566;9.910;2023-04-19T05:15:22;5.40;99.90
38902;DHT22;24661;53.566;9.910;2023-04-19T05:17:47;5.40;99.90
38902;DHT22;24661;53.566;9.910;2023-04-19T05:20:13;5.50;99.90
38902;DHT22;24661;53.566;9.910;2023-04-19T05:22:38;5.50;99.90
38902;DHT22;24661;53.566;9.910;2023-04-19T05:25:05;5.50;99.90
38902;DHT22;24661;53.566;9.910;2023-04-19T05:27:30;5.60;99.90
38902;DHT22;24661;53.566;9.910;2023-04-19T05:29:58;5.70;99.90
38902;DHT22;24661;53.566;9.910;2023-04-19T05:32:24;5.70;99.90
38902;DHT22;24661;53.566;9.910;2023-04-19T05:34:49;5.80;99.90
38902;DHT22;24661;53.566;9.910;2023-04-19T05:37:15;5.80;99.90
38902;DHT22;24661;53.566;9.910;2023-04-19T05:39:40;5.80;99.90
38902;DHT22;24661;53.566;9.910;2023-04-19T05:42:06;5.90;99.90
38902;DHT22;24661;53.566;9.910;2023-04-19T05:44:31;5.90;99.90
38902;DHT22;24661;53.566;9.910;2023-04-19T05:46:57;6.00;99.90
38902;DHT22;24661;53.566;9.910;2023-04-19T05:49:23;6.00;99.90
38902;DHT22;24661;53.566;9.910;2023-04-19T05:51:48;6.10;99.90
38902;DHT22;24661;53.566;9.910;2023-04-19T05:54:15;6.20;99.90
38902;DHT22;24661;53.566;9.910;2023-04-19T05:56:41;6.20;99.90
38902;DHT22;24661;53.566;9.910;2023-04-19T05:59:06;6.30;99.90
38902;DHT22;24661;53.566;9.910;2023-04-19T06:01:32;6.30;99.90
38902;DHT22;24661;53.566;9.910;2023-04-19T06:03:59;6.30;99.90
38902;DHT22;24661;53.566;9.910;2023-04-19T06:06:25;6.40;99.90
38902;DHT22;24661;53.566;9.910;2023-04-19T06:08:50;6.50;99.90
38902;DHT22;24661;53.566;9.910;2023-04-19T06:11:16;6.60;99.90
38902;DHT22;24661;53.566;9.910;2023-04-19T06:13:41;6.70;99.90
38902;DHT22;24661;53.566;9.910;2023-04-19T06:16:09;6.80;99.90
38902;DHT22;24661;53.566;9.910;2023-04-19T06:18:35;6.90;99.90
38902;DHT22;24661;53.566;9.910;2023-04-19T06:21:00;7.10;99.90
38902;DHT22;24661;53.566;9.910;2023-04-19T06:23:26;7.20;99.90
38902;DHT22;24661;53.566;9.910;2023-04-19T06:25:52;7.20;99.90
38902;DHT22;24661;53.566;9.910;2023-04-19T06:28:17;7.30;99.90
38902;DHT22;24661;53.566;9.910;2023-04-19T06:30:43;7.40;99.90
38902;DHT22;24661;53.566;9.910;2023-04-19T06:33:09;7.40;99.90
38902;DHT22;24661;53.566;9.910;2023-04-19T06:35:35;7.50;99.90
38902;DHT22;24661;53.566;9.910;2023-04-19T06:38:00;7.60;99.90
38902;DHT22;24661;53.566;9.910;2023-04-19T06:40:26;7.60;99.90
38902;DHT22;24661;53.566;9.910;2023-04-19T06:42:53;7.70;99.90
38902;DHT22;24661;53.566;9.910;2023-04-19T06:45:19;7.80;99.90
38902;DHT22;24661;53.566;9.910;2023-04-19T06:47:44;7.90;99.90
38902;DHT22;24661;53.566;9.910;2023-04-19T06:50:10;7.90;99.90
38902;DHT22;24661;53.566;9.910;2023-04-19T06:52:36;8.00;99.90
38902;DHT22;24661;53.566;9.910;2023-04-19T06:55:01;8.10;99.90
38902;DHT22;24661;53.566;9.910;2023-04-19T06:57:27;8.10;99.90
38902;DHT22;24661;53.566;9.910;2023-04-19T06:59:54;8.20;99.90
38902;DHT22;24661;53.566;9.910;2023-04-19T07:02:19;8.20;99.90
38902;DHT22;24661;53.566;9.910;2023-04-19T07:04:45;8.30;99.90
38902;DHT22;24661;53.566;9.910;2023-04-19T07:07:11;8.30;99.90
38902;DHT22;24661;53.566;9.910;2023-04-19T07:09:37;8.50;99.90
38902;DHT22;24661;53.566;9.910;2023-04-19T07:12:03;8.60;99.90
38902;DHT22;24661;53.566;9.910;2023-04-19T07:14:28;8.70;99.90
38902;DHT22;24661;53.566;9.910;2023-04-19T07:16:54;8.80;99.90
38902;DHT22;24661;53.566;9.910;2023-04-19T07:19:20;8.90;99.90
38902;DHT22;24661;53.566;9.910;2023-04-19T07:21:46;8.90;99.90
38902;DHT22;24661;53.566;9.910;2023-04-19T07:24:12;9.00;99.90
38902;DHT22;24661;53.566;9.910;2023-04-19T07:26:38;9.10;99.90
38902;DHT22;24661;53.566;9.910;2023-04-19T07:29:03;9.20;99.90
38902;DHT22;24661;53.566;9.910;2023-04-19T07:31:29;9.40;99.90
38902;DHT22;24661;53.566;9.910;2023-04-19T07:33:54;9.50;99.90
38902;DHT22;24661;53.566;9.910;2023-04-19T07:36:20;9.70;99.90
38902;DHT22;24661;53.566;9.910;2023-04-19T07:38:46;9.70;99.90
38902;DHT22;24661;53.566;9.910;2023-04-19T07:41:12;9.80;99.90
38902;DHT22;24661;53.566;9.910;2023-04-19T07:43:37;9.90;99.90
38902;DHT22;24661;53.566;9.910;2023-04-19T07:46:13;10.00;99.90
38902;DHT22;24661;53.566;9.910;2023-04-19T07:48:40;10.00;99.90
38902;DHT22;24661;53.566;9.910;2023-04-19T07:51:16;10.20;99.90
38902;DHT22;24661;53.566;9.910;2023-04-19T07:53:42;10.30;99.90
38902;DHT22;24661;53.566;9.910;2023-04-19T07:56:09;10.40;99.90
38902;DHT22;24661;53.566;9.910;2023-04-19T07:58:36;10.50;99.90
38902;DHT22;24661;53.566;9.910;2023-04-19T08:01:03;10.60;99.90
38902;DHT22;24661;53.566;9.910;2023-04-19T08:03:32;10.60;99.90
38902;DHT22;24661;53.566;9.910;2023-04-19T08:06:00;10.70;99.90
38902;DHT22;24661;53.566;9.910;2023-04-19T08:08:26;10.80;99.90
38902;DHT22;24661;53.566;9.910;2023-04-19T08:10:52;10.90;99.90
38902;DHT22;24661;53.566;9.910;2023-04-19T08:13:21;10.90;99.90
38902;DHT22;24661;53.566;9.910;2023-04-19T08:15:47;11.00;99.90
38902;DHT22;24661;53.566;9.910;2023-04-19T08:18:12;11.10;99.90
38902;DHT22;24661;53.566;9.910;2023-04-19T08:20:38;11.30;99.90
38902;DHT22;24661;53.566;9.910;2023-04-19T08:23:07;11.40;99.90
38902;DHT22;24661;53.566;9.910;2023-04-19T08:25:33;11.40;99.90
38902;DHT22;24661;53.566;9.910;2023-04-19T08:27:58;11.50;99.90
38902;DHT22;24661;53.566;9.910;2023-04-19T08:30:24;11.50;99.90
38902;DHT22;24661;53.566;9.910;2023-04-19T08:32:50;11.60;99.90
38902;DHT22;24661;53.566;9.910;2023-04-19T08:35:15;11.60;99.90
38902;DHT22;24661;53.566;9.910;2023-04-19T08:37:41;11.70;99.90
38902;DHT22;24661;53.566;9.910;2023-04-19T08:40:07;11.80;99.90
38902;DHT22;24661;53.566;9.910;2023-04-19T08:42:33;11.80;99.90
38902;DHT22;24661;53.566;9.910;2023-04-19T08:45:02;13.10;99.90
38902;DHT22;24661;53.566;9.910;2023-04-19T08:47:34;11.90;99.90
38902;DHT22;24661;53.566;9.910;2023-04-19T08:50:01;12.00;99.90
38902;DHT22;24661;53.566;9.910;2023-04-19T08:52:29;12.00;99.90
38902;DHT22;24661;53.566;9.910;2023-04-19T08:54:55;12.20;99.90
38902;DHT22;24661;53.566;9.910;2023-04-19T08:57:20;12.20;99.90
38902;DHT22;24661;53.566;9.910;2023-04-19T08:59:46;12.20;99.90
38902;DHT22;24661;53.566;9.910;2023-04-19T09:02:15;12.30;99.90
38902;DHT22;24661;53.566;9.910;2023-04-19T09:04:41;12.20;99.90
38902;DHT22;24661;53.566;9.910;2023-04-19T09:07:07;12.30;99.90
38902;DHT22;24661;53.566;9.910;2023-04-19T09:09:33;12.30;99.90
38902;DHT22;24661;53.566;9.910;2023-04-19T09:12:00;12.20;99.90
38902;DHT22;24661;53.566;9.910;2023-04-19T09:14:26;12.30;99.90
38902;DHT22;24661;53.566;9.910;2023-04-19T09:16:53;12.40;99.90
38902;DHT22;24661;53.566;9.910;2023-04-19T09:19:19;12.50;99.90
38902;DHT22;24661;53.566;9.910;2023-04-19T09:21:45;12.50;99.90
38902;DHT22;24661;53.566;9.910;2023-04-19T09:24:10;13.70;99.90
38902;DHT22;24661;53.566;9.910;2023-04-19T09:26:36;12.60;99.90
38902;DHT22;24661;53.566;9.910;2023-04-19T09:29:03;12.70;99.90
38902;DHT22;24661;53.566;9.910;2023-04-19T09:31:34;12.70;99.90
38902;DHT22;24661;53.566;9.910;2023-04-19T09:34:14;12.80;99.90
38902;DHT22;24661;53.566;9.910;2023-04-19T09:36:40;12.80;99.90
38902;DHT22;24661;53.566;9.910;2023-04-19T09:39:06;12.80;99.90
38902;DHT22;24661;53.566;9.910;2023-04-19T09:41:32;12.90;99.90
38902;DHT22;24661;53.566;9.910;2023-04-19T09:44:11;12.90;99.90
38902;DHT22;24661;53.566;9.910;2023-04-19T09:46:40;13.00;99.90
38902;DHT22;24661;53.566;9.910;2023-04-19T09:51:43;13.10;99.90
38902;DHT22;24661;53.566;9.910;2023-04-19T09:54:10;13.00;99.90
38902;DHT22;24661;53.566;9.910;2023-04-19T09:56:36;13.20;99.90
38902;DHT22;24661;53.566;9.910;2023-04-19T09:59:06;13.20;99.90
38902;DHT22;24661;53.566;9.910;2023-04-19T10:01:43;13.30;99.90
38902;DHT22;24661;53.566;9.910;2023-04-19T10:04:11;13.20;99.90
38902;DHT22;24661;53.566;9.910;2023-04-19T10:06:38;13.30;99.90
38902;DHT22;24661;53.566;9.910;2023-04-19T10:09:05;13.30;99.90
38902;DHT22;24661;53.566;9.910;2023-04-19T10:11:33;13.40;99.90
38902;DHT22;24661;53.566;9.910;2023-04-19T10:14:10;13.30;97.70
38902;DHT22;24661;53.566;9.910;2023-04-19T10:16:37;13.40;99.40
38902;DHT22;24661;53.566;9.910;2023-04-19T10:19:09;13.40;97.90
38902;DHT22;24661;53.566;9.910;2023-04-19T10:21:36;13.50;97.70
38902;DHT22;24661;53.566;9.910;2023-04-19T10:24:03;13.60;96.10
38902;DHT22;24661;53.566;9.910;2023-04-19T10:26:29;13.50;95.30
38902;DHT22;24661;53.566;9.910;2023-04-19T10:29:15;13.60;95.40
38902;DHT22;24661;53.566;9.910;2023-04-19T10:31:40;13.60;94.50
38902;DHT22;24661;53.566;9.910;2023-04-19T10:34:06;13.60;94.30
38902;DHT22;24661;53.566;9.910;2023-04-19T10:36:32;13.60;93.90
38902;DHT22;24661;53.566;9.910;2023-04-19T10:38:58;13.70;94.80
38902;DHT22;24661;53.566;9.910;2023-04-19T10:41:23;13.70;95.10
38902;DHT22;24661;53.566;9.910;2023-04-19T10:44:10;13.80;93.70
38902;DHT22;24661;53.566;9.910;2023-04-19T10:46:39;13.80;92.40
38902;DHT22;24661;53.566;9.910;2023-04-19T10:49:05;13.70;91.40
38902;DHT22;24661;53.566;9.910;2023-04-19T10:54:07;13.60;90.60
38902;DHT22;24661;53.566;9.910;2023-04-19T11:01:46;13.40;90.30
38902;DHT22;24661;53.566;9.910;2023-04-19T11:04:21;13.20;84.70
38902;DHT22;24661;53.566;9.910;2023-04-19T11:09:34;13.20;87.40
38902;DHT22;24661;53.566;9.910;2023-04-19T11:14:26;13.20;87.80
38902;DHT22;24661;53.566;9.910;2023-04-19T11:16:51;13.30;87.20
38902;DHT22;24661;53.566;9.910;2023-04-19T11:19:17;13.40;85.20
38902;DHT22;24661;53.566;9.910;2023-04-19T11:21:48;13.40;85.90
38902;DHT22;24661;53.566;9.910;2023-04-19T11:24:14;13.50;84.30
38902;DHT22;24661;53.566;9.910;2023-04-19T11:26:44;13.50;85.10
38902;DHT22;24661;53.566;9.910;2023-04-19T11:29:11;13.50;84.50
38902;DHT22;24661;53.566;9.910;2023-04-19T11:31:37;13.50;84.70
38902;DHT22;24661;53.566;9.910;2023-04-19T11:34:03;13.50;81.90
38902;DHT22;24661;53.566;9.910;2023-04-19T11:36:30;13.50;85.30
38902;DHT22;24661;53.566;9.910;2023-04-19T11:38:56;13.70;85.20
38902;DHT22;24661;53.566;9.910;2023-04-19T11:41:22;13.60;80.20
38902;DHT22;24661;53.566;9.910;2023-04-19T11:43:48;13.70;81.40
38902;DHT22;24661;53.566;9.910;2023-04-19T11:46:13;13.60;82.60
38902;DHT22;24661;53.566;9.910;2023-04-19T11:48:50;13.60;82.20
38902;DHT22;24661;53.566;9.910;2023-04-19T11:51:17;13.70;83.40
38902;DHT22;24661;53.566;9.910;2023-04-19T11:53:42;13.70;84.40
38902;DHT22;24661;53.566;9.910;2023-04-19T11:56:08;13.80;84.40
38902;DHT22;24661;53.566;9.910;2023-04-19T11:58:38;13.80;79.80
38902;DHT22;24661;53.566;9.910;2023-04-19T12:01:07;13.70;80.30
38902;DHT22;24661;53.566;9.910;2023-04-19T12:03:34;13.80;83.50
38902;DHT22;24661;53.566;9.910;2023-04-19T12:06:04;13.70;83.40
38902;DHT22;24661;53.566;9.910;2023-04-19T12:08:37;13.90;81.90
38902;DHT22;24661;53.566;9.910;2023-04-19T12:11:04;14.10;85.60
38902;DHT22;24661;53.566;9.910;2023-04-19T12:13:31;13.90;81.00
38902;DHT22;24661;53.566;9.910;2023-04-19T12:15:57;14.00;84.30
38902;DHT22;24661;53.566;9.910;2023-04-19T12:18:23;13.90;80.20
38902;DHT22;24661;53.566;9.910;2023-04-19T12:20:50;14.00;81.30
38902;DHT22;24661;53.566;9.910;2023-04-19T12:23:17;14.10;79.70
38902;DHT22;24661;53.566;9.910;2023-04-19T12:25:44;14.00;82.40
38902;DHT22;24661;53.566;9.910;2023-04-19T12:28:11;13.90;79.00
38902;DHT22;24661;53.566;9.910;2023-04-19T12:30:37;14.00;80.90
38902;DHT22;24661;53.566;9.910;2023-04-19T12:33:03;14.10;80.30
38902;DHT22;24661;53.566;9.910;2023-04-19T12:35:29;13.90;77.90
38902;DHT22;24661;53.566;9.910;2023-04-19T12:37:57;13.90;81.00
38902;DHT22;24661;53.566;9.910;2023-04-19T12:40:25;14.00;81.20
38902;DHT22;24661;53.566;9.910;2023-04-19T12:42:51;14.00;82.30
38902;DHT22;24661;53.566;9.910;2023-04-19T12:45:18;13.90;79.00
38902;DHT22;24661;53.566;9.910;2023-04-19T12:47:45;13.90;82.20
38902;DHT22;24661;53.566;9.910;2023-04-19T12:50:12;14.00;83.20
38902;DHT22;24661;53.566;9.910;2023-04-19T12:52:39;14.20;82.90
38902;DHT22;24661;53.566;9.910;2023-04-19T12:55:05;14.30;80.50
38902;DHT22;24661;53.566;9.910;2023-04-19T12:57:31;14.30;80.90
38902;DHT22;24661;53.566;9.910;2023-04-19T12:59:56;14.40;85.00
38902;DHT22;24661;53.566;9.910;2023-04-19T13:02:22;14.60;83.30
38902;DHT22;24661;53.566;9.910;2023-04-19T13:04:48;14.60;82.00
38902;DHT22;24661;53.566;9.910;2023-04-19T13:07:13;14.40;81.20
38902;DHT22;24661;53.566;9.910;2023-04-19T13:09:39;14.30;78.80
38902;DHT22;24661;53.566;9.910;2023-04-19T13:12:05;14.50;83.50
38902;DHT22;24661;53.566;9.910;2023-04-19T13:14:31;14.40;82.00
38902;DHT22;24661;53.566;9.910;2023-04-19T13:16:57;14.40;82.50
38902;DHT22;24661;53.566;9.910;2023-04-19T13:19:23;14.50;83.40
38902;DHT22;24661;53.566;9.910;2023-04-19T13:21:49;14.60;82.50
38902;DHT22;24661;53.566;9.910;2023-04-19T13:24:15;14.40;78.20
38902;DHT22;24661;53.566;9.910;2023-04-19T13:26:40;14.40;77.20
38902;DHT22;24661;53.566;9.910;2023-04-19T13:29:06;14.50;79.10
38902;DHT22;24661;53.566;9.910;2023-04-19T13:31:34;13.90;77.80
38902;DHT22;24661;53.566;9.910;2023-04-19T13:34:00;14.60;77.90
38902;DHT22;24661;53.566;9.910;2023-04-19T13:36:26;14.70;78.90
38902;DHT22;24661;53.566;9.910;2023-04-19T13:38:52;14.80;75.80
38902;DHT22;24661;53.566;9.910;2023-04-19T13:41:18;14.90;77.20
38902;DHT22;24661;53.566;9.910;2023-04-19T13:43:44;15.10;78.10
38902;DHT22;24661;53.566;9.910;2023-04-19T13:46:10;15.30;74.70
38902;DHT22;24661;53.566;9.910;2023-04-19T13:48:36;15.60;75.20
38902;DHT22;24661;53.566;9.910;2023-04-19T13:51:01;15.80;75.10
38902;DHT22;24661;53.566;9.910;2023-04-19T13:53:27;16.20;74.70
38902;DHT22;24661;53.566;9.910;2023-04-19T13:55:54;16.50;76.70
38902;DHT22;24661;53.566;9.910;2023-04-19T13:58:20;16.00;73.80
38902;DHT22;24661;53.566;9.910;2023-04-19T14:00:45;15.70;72.50
38902;DHT22;24661;53.566;9.910;2023-04-19T14:03:12;15.50;71.70
38902;DHT22;24661;53.566;9.910;2023-04-19T14:05:38;15.20;72.90
38902;DHT22;24661;53.566;9.910;2023-04-19T14:08:05;15.00;74.20
38902;DHT22;24661;53.566;9.910;2023-04-19T14:10:31;14.50;71.70
38902;DHT22;24661;53.566;9.910;2023-04-19T14:12:56;14.60;74.70
38902;DHT22;24661;53.566;9.910;2023-04-19T14:15:22;14.70;74.70
38902;DHT22;24661;53.566;9.910;2023-04-19T14:17:49;14.60;75.00
38902;DHT22;24661;53.566;9.910;2023-04-19T14:20:16;14.50;76.00
38902;DHT22;24661;53.566;9.910;2023-04-19T14:22:42;14.60;77.00
38902;DHT22;24661;53.566;9.910;2023-04-19T14:25:08;14.60;75.00
38902;DHT22;24661;53.566;9.910;2023-04-19T14:27:34;14.60;78.90
38902;DHT22;24661;53.566;9.910;2023-04-19T14:30:00;14.30;74.00
38902;DHT22;24661;53.566;9.910;2023-04-19T14:32:25;14.40;74.90
38902;DHT22;24661;53.566;9.910;2023-04-19T14:34:52;14.60;73.10
38902;DHT22;24661;53.566;9.910;2023-04-19T14:37:19;14.70;76.30
38902;DHT22;24661;53.566;9.910;2023-04-19T14:39:45;14.40;74.00
38902;DHT22;24661;53.566;9.910;2023-04-19T14:42:12;14.40;76.90
38902;DHT22;24661;53.566;9.910;2023-04-19T14:44:39;14.40;73.20
38902;DHT22;24661;53.566;9.910;2023-04-19T14:47:05;14.10;71.00
38902;DHT22;24661;53.566;9.910;2023-04-19T14:49:32;14.00;75.90
38902;DHT22;24661;53.566;9.910;2023-04-19T14:51:58;14.40;75.30
38902;DHT22;24661;53.566;9.910;2023-04-19T14:54:23;14.20;74.20
38902;DHT22;24661;53.566;9.910;2023-04-19T14:56:49;13.90;71.00
38902;DHT22;24661;53.566;9.910;2023-04-19T14:59:15;13.90;74.90
38902;DHT22;24661;53.566;9.910;2023-04-19T15:01:41;14.10;73.90
38902;DHT22;24661;53.566;9.910;2023-04-19T15:04:06;13.90;71.20
38902;DHT22;24661;53.566;9.910;2023-04-19T15:06:32;13.90;71.60
38902;DHT22;24661;53.566;9.910;2023-04-19T15:08:58;14.10;70.40
38902;DHT22;24661;53.566;9.910;2023-04-19T15:11:23;14.00;70.10
38902;DHT22;24661;53.566;9.910;2023-04-19T15:13:49;14.10;71.40
38902;DHT22;24661;53.566;9.910;2023-04-19T15:16:14;14.40;70.40
38902;DHT22;24661;53.566;9.910;2023-04-19T15:18:40;16.00;70.50
38902;DHT22;24661;53.566;9.910;2023-04-19T15:21:06;15.10;70.40
38902;DHT22;24661;53.566;9.910;2023-04-19T15:23:31;15.70;70.30
38902;DHT22;24661;53.566;9.910;2023-04-19T15:25:57;15.50;68.80
38902;DHT22;24661;53.566;9.910;2023-04-19T15:28:23;15.00;69.00
38902;DHT22;24661;53.566;9.910;2023-04-19T15:31:00;14.80;68.80
38902;DHT22;24661;53.566;9.910;2023-04-19T15:33:27;14.80;70.00
38902;DHT22;24661;53.566;9.910;2023-04-19T15:36:00;14.60;70.60
38902;DHT22;24661;53.566;9.910;2023-04-19T15:38:30;14.40;67.60
38902;DHT22;24661;53.566;9.910;2023-04-19T15:40:57;14.40;68.10
38902;DHT22;24661;53.566;9.910;2023-04-19T15:43:26;14.40;67.60
38902;DHT22;24661;53.566;9.910;2023-04-19T15:45:52;13.90;67.30
38902;DHT22;24661;53.566;9.910;2023-04-19T15:48:18;13.90;69.10